createdAt,value
2022-09-04T00:00:12.698Z,2.92
2022-09-04T00:02:51.641Z,3.33
2022-09-04T00:05:39.850Z,3.75
2022-09-04T00:08:18.677Z,3.15
2022-09-04T00:11:00.189Z,3.25
2022-09-04T00:13:52.826Z,3.60
2022-09-04T00:16:27.625Z,3.80
2022-09-04T00:19:09.646Z,4.18
2022-09-04T00:21:48.960Z,3.75
2022-09-04T00:24:18.801Z,4.05
2022-09-04T00:26:50.393Z,3.97
2022-09-04T00:29:50.324Z,4.15
2022-09-04T00:32:50.027Z,4.55
2022-09-04T00:35:22.931Z,4.78
2022-09-04T00:38:08.993Z,4.28
2022-09-04T00:40:43.684Z,4.68
2022-09-04T00:43:22.442Z,6.97
2022-09-04T00:46:13.331Z,4.47
2022-09-04T00:49:08.224Z,4.40
2022-09-04T00:52:06.441Z,3.92
2022-09-04T00:54:54.499Z,4.72
2022-09-04T00:57:45.822Z,5.35
2022-09-04T01:00:18.790Z,8.25
2022-09-04T01:03:00.766Z,10.00
2022-09-04T01:05:56.777Z,4.47
2022-09-04T01:08:56.504Z,4.47
2022-09-04T01:11:45.383Z,4.88
2022-09-04T01:14:34.704Z,4.18
2022-09-04T01:17:16.691Z,7.38
2022-09-04T01:19:54.015Z,11.15
2022-09-04T01:22:46.122Z,7.55
2022-09-04T01:25:28.213Z,5.32
2022-09-04T01:28:20.878Z,4.97
2022-09-04T01:31:26.412Z,4.30
2022-09-04T01:34:20.943Z,5.28
2022-09-04T01:37:00.333Z,5.40
2022-09-04T01:39:31.968Z,6.90
2022-09-04T01:42:06.315Z,5.03
2022-09-04T01:44:34.293Z,5.28
2022-09-04T01:47:36.034Z,5.38
2022-09-04T01:53:11.063Z,5.25
2022-09-04T01:55:55.572Z,5.35
2022-09-04T01:59:04.153Z,6.00
2022-09-04T02:01:42.305Z,5.88
2022-09-04T02:04:21.793Z,15.85
2022-09-04T02:07:10.010Z,6.20
2022-09-04T02:09:56.965Z,5.13
2022-09-04T02:12:51.270Z,5.72
2022-09-04T02:15:33.566Z,6.15
2022-09-04T02:18:33.250Z,6.68
2022-09-04T02:21:12.754Z,5.50
2022-09-04T02:24:11.760Z,6.20
2022-09-04T02:27:20.279Z,12.90
2022-09-04T02:30:04.266Z,13.50
2022-09-04T02:32:46.255Z,6.00
2022-09-04T02:35:53.077Z,6.00
2022-09-04T02:38:20.015Z,5.55
2022-09-04T02:40:58.958Z,6.50
2022-09-04T02:43:52.387Z,6.80
2022-09-04T02:46:32.678Z,6.72
2022-09-04T02:49:23.486Z,7.22
2022-09-04T02:52:12.033Z,13.63
2022-09-04T02:55:04.273Z,15.05
2022-09-04T02:58:03.733Z,8.77
2022-09-04T03:00:57.190Z,9.50
2022-09-04T03:03:42.413Z,13.20
2022-09-04T03:06:13.684Z,7.28
2022-09-04T03:09:10.979Z,6.20
2022-09-04T03:11:46.342Z,6.20
2022-09-04T03:14:34.737Z,6.18
2022-09-04T03:17:26.159Z,6.18
2022-09-04T03:20:03.502Z,6.90
2022-09-04T03:22:36.267Z,7.07
2022-09-04T03:25:29.793Z,8.07
2022-09-04T03:27:56.741Z,7.78
2022-09-04T03:30:23.648Z,7.20
2022-09-04T03:33:15.568Z,8.30
2022-09-04T03:35:55.128Z,7.65
2022-09-04T03:38:31.589Z,7.63
2022-09-04T03:41:19.633Z,8.13
2022-09-04T03:44:13.818Z,8.60
2022-09-04T03:47:01.622Z,8.55
2022-09-04T03:49:51.640Z,8.90
2022-09-04T03:52:36.886Z,9.52
2022-09-04T03:55:04.334Z,8.70
2022-09-04T03:57:59.922Z,9.10
2022-09-04T04:00:37.149Z,7.97
2022-09-04T04:03:34.378Z,8.90
2022-09-04T04:06:27.277Z,8.30
2022-09-04T04:09:19.102Z,7.72
2022-09-04T04:11:53.474Z,7.13
2022-09-04T04:14:37.860Z,6.47
2022-09-04T04:17:26.497Z,6.55
2022-09-04T04:20:18.604Z,7.15
2022-09-04T04:22:48.065Z,7.43
2022-09-04T04:25:34.480Z,6.93
2022-09-04T04:28:07.388Z,7.38
2022-09-04T04:30:54.597Z,7.90
2022-09-04T04:33:45.854Z,7.95
2022-09-04T04:36:49.524Z,9.10
2022-09-04T04:39:44.918Z,8.43
2022-09-04T04:42:32.870Z,11.45
2022-09-04T05:27:08.927Z,8.13
2022-09-04T05:30:00.520Z,6.65
2022-09-04T05:35:25.124Z,7.10
2022-09-04T05:38:09.071Z,6.78
2022-09-04T05:41:05.905Z,7.30
2022-09-04T05:44:07.349Z,6.78
2022-09-04T05:46:52.818Z,7.07
2022-09-04T05:49:57.069Z,6.43
2022-09-04T05:52:32.717Z,7.05
2022-09-04T05:55:05.934Z,6.55
2022-09-04T05:57:44.509Z,6.13
2022-09-04T06:00:16.484Z,6.25
2022-09-04T06:02:52.179Z,6.28
2022-09-04T06:05:32.628Z,7.22
2022-09-04T06:08:20.994Z,6.60
2022-09-04T06:11:26.376Z,6.05
2022-09-04T06:14:09.877Z,9.52
2022-09-04T06:16:42.544Z,6.80
2022-09-04T06:19:46.022Z,6.47
2022-09-04T06:22:48.107Z,6.60
2022-09-04T06:25:29.470Z,6.38
2022-09-04T06:28:34.388Z,6.30
2022-09-04T06:31:19.377Z,6.40
2022-09-04T06:33:56.732Z,5.82
2022-09-04T06:36:40.582Z,7.15
2022-09-04T06:39:26.826Z,6.07
2022-09-04T06:42:23.550Z,5.68
2022-09-04T06:44:56.670Z,6.75
2022-09-04T06:48:14.582Z,6.25
2022-09-04T06:51:24.117Z,6.32
2022-09-04T06:54:21.543Z,6.32
2022-09-04T06:57:06.101Z,6.18
2022-09-04T07:00:08.690Z,6.40
2022-09-04T07:03:29.169Z,6.43
2022-09-04T07:06:17.805Z,6.05
2022-09-04T07:08:58.716Z,5.47
2022-09-04T07:11:43.492Z,5.38
2022-09-04T07:14:31.659Z,5.78
2022-09-04T07:17:15.988Z,6.35
2022-09-04T07:19:49.265Z,6.47
2022-09-04T07:22:24.019Z,6.72
2022-09-04T07:25:23.458Z,6.07
2022-09-04T07:27:52.953Z,6.57
2022-09-04T07:30:20.679Z,7.25
2022-09-04T07:33:02.611Z,6.45
2022-09-04T07:35:39.572Z,7.18
2022-09-04T07:38:09.466Z,7.53
2022-09-04T07:40:44.436Z,7.00
2022-09-04T07:43:42.591Z,7.85
2022-09-04T07:46:26.385Z,7.53
2022-09-04T07:49:09.917Z,6.43
2022-09-04T07:51:44.186Z,6.60
2022-09-04T07:54:45.609Z,6.95
2022-09-04T07:57:26.467Z,6.80
2022-09-04T08:00:13.818Z,6.75
2022-09-04T08:03:12.001Z,6.07
2022-09-04T08:05:52.220Z,7.22
2022-09-04T08:08:27.880Z,7.10
2022-09-04T08:11:16.260Z,7.53
2022-09-04T08:14:18.682Z,8.45
2022-09-04T08:16:53.497Z,8.82
2022-09-04T08:19:48.934Z,8.30
2022-09-04T08:22:28.521Z,7.68
2022-09-04T08:25:25.709Z,7.45
2022-09-04T08:28:20.789Z,7.82
2022-09-04T08:31:01.870Z,9.48
2022-09-04T08:33:39.845Z,8.10
2022-09-04T08:36:10.449Z,8.02
2022-09-04T08:39:02.264Z,8.57
2022-09-04T08:41:37.327Z,8.40
2022-09-04T08:44:09.889Z,8.27
2022-09-04T08:46:55.532Z,8.38
2022-09-04T08:49:34.265Z,7.82
2022-09-04T08:52:26.501Z,7.40
2022-09-04T08:55:15.150Z,7.00
2022-09-04T08:57:59.653Z,7.43
2022-09-04T09:00:42.936Z,6.22
2022-09-04T09:03:31.575Z,6.15
2022-09-04T09:06:07.447Z,5.47
2022-09-04T09:09:02.031Z,6.45
2022-09-04T09:11:47.182Z,5.88
2022-09-04T09:14:17.052Z,5.70
2022-09-04T09:17:12.554Z,6.18
2022-09-04T09:19:39.881Z,5.13
2022-09-04T09:22:28.195Z,4.80
2022-09-04T09:25:21.219Z,4.65
2022-09-04T09:28:11.369Z,5.25
2022-09-04T09:31:12.494Z,5.05
2022-09-04T09:34:00.886Z,6.05
2022-09-04T09:36:44.569Z,5.40
2022-09-04T09:39:36.292Z,4.70
2022-09-04T09:42:40.333Z,6.47
2022-09-04T09:45:29.150Z,5.43
2022-09-04T09:48:01.918Z,4.55
2022-09-04T09:50:56.230Z,4.63
2022-09-04T14:22:52.211Z,2.95
2022-09-04T14:25:43.528Z,2.40
2022-09-04T14:31:10.729Z,2.60
2022-09-04T14:33:55.188Z,2.65
2022-09-04T14:36:28.090Z,2.78
2022-09-04T14:39:04.123Z,2.60
2022-09-04T14:42:12.576Z,2.70
2022-09-04T14:45:09.771Z,2.50
2022-09-04T14:47:45.353Z,2.97
2022-09-04T14:50:14.831Z,2.65
2022-09-04T14:52:54.337Z,2.72
2022-09-04T14:55:33.751Z,3.08
2022-09-04T14:58:19.785Z,3.45
2022-09-04T15:01:01.611Z,2.90
2022-09-04T15:03:37.661Z,3.22
2022-09-04T15:06:16.363Z,1.95
2022-09-04T15:08:45.490Z,2.28
2022-09-04T15:11:34.897Z,4.35
2022-09-04T15:14:22.013Z,3.13
2022-09-04T15:16:54.500Z,2.05
2022-09-04T15:19:35.974Z,2.40
2022-09-04T15:22:21.204Z,2.25
2022-09-04T15:24:58.733Z,2.75
2022-09-04T15:27:35.388Z,1.92
2022-09-04T15:30:20.436Z,2.45
2022-09-04T15:32:49.619Z,2.65
2022-09-04T15:35:30.268Z,2.33
2022-09-04T15:38:21.378Z,2.50
2022-09-04T15:41:15.216Z,2.83
2022-09-04T15:43:51.256Z,2.40
2022-09-04T15:46:33.261Z,2.38
2022-09-04T15:49:00.025Z,2.38
2022-09-04T15:51:39.529Z,3.08
2022-09-04T15:54:12.164Z,2.33
2022-09-04T15:56:54.047Z,2.75
2022-09-04T15:59:30.474Z,2.58
2022-09-04T16:02:11.757Z,2.70
2022-09-04T16:04:49.677Z,2.50
2022-09-04T16:07:36.779Z,2.97
2022-09-04T16:10:40.054Z,2.25
2022-09-04T16:13:30.776Z,2.10
2022-09-04T16:16:12.887Z,3.20
2022-09-04T16:21:40.806Z,2.60
2022-09-04T16:24:15.455Z,2.47
2022-09-04T16:26:47.916Z,2.50
2022-09-04T17:10:49.256Z,6.00
2022-09-04T17:13:30.414Z,32.95
2022-09-04T17:16:17.611Z,14.35
2022-09-04T17:18:49.113Z,3.70
2022-09-04T17:28:57.232Z,11.48
2022-09-04T17:29:12.103Z,2.50
2022-09-04T17:29:16.662Z,3.65
2022-09-04T17:31:07.750Z,8.80
2022-09-04T17:40:38.752Z,4.07
2022-09-04T17:40:44.000Z,3.70
2022-09-04T17:40:51.161Z,19.52
2022-09-04T17:42:28.611Z,31.90
2022-09-04T17:45:26.965Z,31.30
2022-09-04T17:48:33.256Z,19.33
2022-09-04T17:51:03.452Z,8.32
2022-09-04T17:53:34.948Z,38.13
2022-09-04T17:56:22.758Z,31.10
2022-09-04T17:59:09.191Z,7.32
2022-09-04T18:01:55.071Z,30.83
2022-09-04T18:04:47.468Z,27.02
2022-09-04T18:08:10.016Z,31.25
2022-09-04T18:10:25.329Z,34.70
2022-09-04T18:13:37.108Z,31.52
2022-09-04T18:16:16.276Z,22.58
2022-09-04T18:18:53.658Z,34.90
2022-09-04T18:21:31.660Z,39.47
2022-09-04T18:24:10.570Z,41.88
2022-09-04T18:26:52.631Z,24.42
2022-09-04T18:30:17.454Z,10.27
2022-09-04T18:37:24.173Z,5.60
2022-09-04T18:37:24.735Z,39.00
2022-09-04T18:38:41.919Z,5.72
2022-09-04T18:48:09.654Z,19.73
2022-09-04T18:50:28.267Z,22.02
2022-09-04T18:50:33.209Z,44.10
2022-09-04T18:50:44.117Z,28.63
2022-09-04T18:53:17.263Z,32.75
2022-09-04T18:55:47.747Z,49.03
2022-09-04T18:58:14.866Z,41.70
2022-09-04T19:01:00.040Z,17.35
2022-09-04T19:03:42.087Z,4.90
2022-09-04T19:06:17.703Z,3.63
2022-09-04T19:08:51.176Z,2.80
2022-09-04T19:11:30.779Z,3.60
2022-09-04T19:14:11.327Z,27.33
2022-09-04T19:16:43.355Z,40.20
2022-09-04T19:19:18.659Z,25.48
2022-09-04T19:21:57.580Z,30.13
2022-09-04T19:24:49.258Z,54.60
2022-09-04T19:27:27.589Z,46.42
2022-09-04T19:30:18.131Z,26.48
2022-09-04T19:35:18.107Z,42.00
2022-09-04T19:41:29.647Z,37.80
2022-09-04T19:45:59.673Z,22.63
2022-09-04T19:46:11.849Z,5.00
2022-09-04T19:46:52.231Z,23.88
2022-09-04T19:53:19.867Z,16.02
2022-09-04T19:53:34.523Z,19.20
2022-09-04T19:55:45.351Z,16.00
2022-09-04T19:58:18.423Z,36.75
2022-09-04T20:00:49.560Z,57.00
2022-09-04T20:03:39.652Z,3.72
2022-09-04T20:06:21.906Z,20.92
2022-09-04T20:09:16.978Z,27.08
2022-09-04T20:11:52.762Z,37.88
2022-09-04T20:14:19.711Z,52.75
2022-09-04T20:16:56.777Z,34.25
2022-09-04T20:19:41.265Z,43.67
2022-09-04T20:22:27.044Z,39.20
2022-09-04T20:25:08.155Z,29.38
2022-09-04T20:27:46.389Z,28.13
2022-09-04T20:30:19.722Z,4.65
2022-09-04T20:33:02.232Z,9.95
2022-09-04T20:35:46.907Z,4.90
2022-09-04T20:38:30.654Z,4.25
2022-09-04T20:41:19.123Z,10.00
2022-09-04T20:44:13.669Z,33.67
2022-09-04T20:52:45.189Z,30.20
2022-09-04T20:52:50.062Z,39.90
2022-09-04T20:52:55.258Z,14.43
2022-09-04T20:56:01.913Z,28.92
2022-09-04T21:03:06.730Z,38.80
2022-09-04T21:03:18.288Z,20.65
2022-09-04T21:05:32.838Z,23.88
2022-09-04T21:08:06.761Z,11.98
2022-09-04T21:10:45.814Z,14.20
2022-09-04T21:13:27.388Z,11.05
2022-09-04T21:16:22.437Z,18.17
2022-09-04T21:19:27.373Z,72.25
2022-09-04T21:22:09.986Z,6.63
2022-09-04T21:24:59.306Z,19.00
2022-09-04T21:27:44.745Z,55.15
2022-09-04T21:30:37.904Z,24.38
2022-09-04T21:33:27.665Z,26.08
2022-09-04T21:36:25.655Z,28.77
2022-09-04T21:39:11.361Z,27.25
2022-09-04T21:42:17.215Z,11.43
2022-09-04T21:45:07.427Z,6.07
2022-09-04T21:48:01.097Z,9.13
2022-09-04T21:50:52.588Z,7.32
2022-09-04T22:05:18.603Z,5.37
2022-09-04T22:12:13.118Z,8.10
2022-09-04T22:32:29.135Z,21.58
2022-09-04T22:35:43.161Z,33.28
2022-09-04T22:38:40.870Z,11.20
2022-09-04T22:41:45.850Z,4.57
2022-09-04T22:44:44.538Z,6.10
2022-09-04T22:47:45.257Z,4.55
